Airfield :
LOGIN :

Register | Disclaimer

   EN    FR    IT 

 










Legend :    VFR   Marginal VFR   IFR   Intensive IFR   Very Intensive IFR
Visi :
Ceiling :
>= 8 km
>= 3000ft
5 to 8 km
1000 to 3000 ft
1500m to 5 km
500 to 1000 ft
800 to 1500m
200 to 500 ft
< 800m
< 200 ft
Symbols :   Thunderstorms  Fog  Heavy snow  Heavy precipitations  Wind > 20 kt
SIGMETs :     Misc.  Thunderstorms  Icing  Turbulence  Mountain Waves  Volcanic Ashes






- Airport Elevation : 505 ft
- IATA code : SXB


LFST - Strasbourg

CURRENT METAR :
  • 260100Z AUTO VRB02KT 5000 -RA BR FEW003/// SCT022/// OVC068/// ///CB 11/10 Q1005 TEMPO RA BKN003

EXPIRED METARs :
  • 260030Z AUTO VRB02KT 6000 RA FEW003/// BKN072/// OVC088/// ///TCU 11/10 Q1004 TEMPO 3000 RA BKN003
  • 260000Z AUTO VRB02KT 6000 -RA FEW054/// BKN074/// OVC084/// ///TCU 11/10 Q1005 TEMPO 3000 RA BKN003
  • 252330Z AUTO 24003KT 4400 RA BR BKN004/// BKN012/// BKN041/// ///CB 11/10 Q1005 TEMPO BKN003
  • 252300Z AUTO VRB03KT 4500 RA BR BKN003/// BKN015/// BKN025/// ///TCU 11/10 Q1005 BECMG 9999 NSW BKN040
  • 252230Z AUTO 11003KT 080V160 9999 -RA FEW003/// SCT027/// BKN045/// ///TCU 11/10 Q1005 TEMPO 31012KT 3000 RA BECMG BKN040

TAF AMD TAF LFST
Valid from the 26 at 01:00 until the 27 at 00:00 UTC


260108Z 2601/2624 20005KT 9999 FEW005 BKN030
TEMPO 2601/2604 28010KT 3000 RA BKN003 BKN030CB
PROB40
TEMPO 2604/2610 -SHRA BKN010
TEMPO 2610/2616 -SHRA FEW015TCU



MET'MAP, your aeronautical weather chart ! - Copyright ORBIFLY December 2007 - Disclaimer

ORBIFLY MET'MAP TEAM :

Programming & Development : Alexandra Zaïnal
Concept & original design : Baudouin d'Aumeries
Assistance for programming : Marc-Olivier Méhu
Technical & hardware support : Manuel Goepfert

Contact : metmap@orbifly.com




SOURCES & CREDITS :

   NOAA